New Florence, Pennsylvania
Current Conditions -  °F | °C
As of 12:54 PM on Saturday 20 Dec 2014 (Local Time) from KJST Reporting Station
Clear Clear  
Wind Chill: 26°   Ceiling: Unl
Heat Index: 26°   Visibility: 10mi
Dew Point: 18°   Wind: 3mph
Humidity: 71%   Direction: 210°SSW
Pressure: 30.14"   Gusts: NA
Location:  40.38°N, 79.08°W
Report Text: KJST 201754Z AUTO 21003KT 10SM CLR M03/M08 A3014 RMK AO2 SLP238 T10331078 11033 21067 58010
Loading
Personal Weather Stations






























Interactive Weather Map New forecast layout! Learn more

10-Day Weather Forecast

Advertisements
Track Severe Weather on mobile